createdAt,value
2019-02-05T00:02:12.596Z,3.49
2019-02-05T00:04:42.344Z,3.56
2019-02-05T00:07:12.112Z,3.54
2019-02-05T00:09:41.867Z,3.54
2019-02-05T00:12:11.619Z,3.62
2019-02-05T00:14:41.364Z,3.50
2019-02-05T00:17:11.140Z,3.58
2019-02-05T00:19:40.874Z,3.50
2019-02-05T00:22:10.656Z,3.49
2019-02-05T00:24:40.499Z,3.45
2019-02-05T00:27:10.268Z,3.42
2019-02-05T00:29:40.024Z,3.33
2019-02-05T00:32:09.740Z,3.37
2019-02-05T00:34:39.476Z,3.36
2019-02-05T00:37:09.225Z,3.27
2019-02-05T00:39:39.334Z,3.18
2019-02-05T00:42:09.091Z,3.16
2019-02-05T00:44:38.838Z,3.04
2019-02-05T00:47:08.593Z,3.05
2019-02-05T00:49:38.316Z,3.09
2019-02-05T00:52:08.095Z,2.94
2019-02-05T00:54:37.904Z,2.81
2019-02-05T00:57:07.653Z,2.77
2019-02-05T00:59:37.432Z,2.72
2019-02-05T01:02:07.195Z,2.71
2019-02-05T01:04:36.938Z,2.60
2019-02-05T01:07:06.862Z,2.66
2019-02-05T01:09:36.597Z,2.67
2019-02-05T01:12:06.425Z,2.59
2019-02-05T01:14:36.227Z,2.59
2019-02-05T01:17:06.001Z,2.65
2019-02-05T01:19:35.742Z,2.60
2019-02-05T01:22:05.785Z,2.59
2019-02-05T01:24:35.530Z,2.54
2019-02-05T01:27:05.319Z,2.58
2019-02-05T01:29:35.080Z,2.51
2019-02-05T01:32:04.845Z,2.45
2019-02-05T01:34:34.586Z,2.38
2019-02-05T01:37:04.469Z,2.38
2019-02-05T01:39:34.214Z,2.38
2019-02-05T01:42:03.982Z,2.22
2019-02-05T01:44:33.730Z,2.24
2019-02-05T01:47:03.506Z,2.27
2019-02-05T01:49:33.255Z,2.23
2019-02-05T01:52:03.016Z,2.18
2019-02-05T01:54:32.795Z,2.12
2019-02-05T01:57:02.543Z,2.09
2019-02-05T01:59:33.389Z,2.01
2019-02-05T02:02:03.320Z,2.03
2019-02-05T02:04:33.467Z,1.92
2019-02-05T02:07:03.385Z,1.90
2019-02-05T02:09:33.169Z,1.90
2019-02-05T02:12:04.779Z,1.89
2019-02-05T02:14:34.562Z,1.98
2019-02-05T02:17:04.454Z,1.97
2019-02-05T02:19:34.300Z,1.90
2019-02-05T02:22:04.037Z,1.89
2019-02-05T02:24:33.810Z,2.02
2019-02-05T02:27:03.552Z,2.06
2019-02-05T02:29:33.407Z,2.14
2019-02-05T02:32:03.171Z,2.02
2019-02-05T02:34:32.966Z,1.96
2019-02-05T02:37:02.703Z,1.94
2019-02-05T02:39:32.508Z,1.99
2019-02-05T02:42:02.229Z,2.00
2019-02-05T02:44:32.004Z,2.00
2019-02-05T02:47:01.929Z,2.01
2019-02-05T02:49:31.731Z,2.05
2019-02-05T02:52:01.652Z,2.11
2019-02-05T02:54:31.409Z,2.05
2019-02-05T02:57:04.834Z,1.89
2019-02-05T02:59:32.644Z,2.02
2019-02-05T03:02:02.772Z,2.06
2019-02-05T03:04:32.610Z,2.07
2019-02-05T03:07:02.350Z,2.06
2019-02-05T03:09:33.201Z,2.16
2019-02-05T03:12:02.939Z,2.12
2019-02-05T03:14:32.719Z,2.07
2019-02-05T03:17:02.870Z,2.12
2019-02-05T03:19:32.615Z,2.02
2019-02-05T03:22:02.400Z,2.07
2019-02-05T03:24:32.156Z,1.99
2019-02-05T03:27:01.926Z,1.98
2019-02-05T03:29:31.797Z,2.02
2019-02-05T03:32:01.544Z,1.99
2019-02-05T03:34:32.661Z,1.96
2019-02-05T03:37:02.422Z,2.02
2019-02-05T03:39:32.213Z,2.04
2019-02-05T03:42:02.112Z,2.09
2019-02-05T03:44:31.913Z,2.06
2019-02-05T03:47:01.666Z,2.14
2019-02-05T03:49:31.818Z,2.08
2019-02-05T03:52:03.996Z,2.11
2019-02-05T03:54:52.262Z,2.02
2019-02-05T03:57:31.650Z,2.09
2019-02-05T04:00:19.731Z,2.14
2019-02-05T04:02:58.602Z,2.20
2019-02-05T04:06:04.671Z,2.20
2019-02-05T04:08:52.118Z,2.15
2019-02-05T04:11:39.994Z,2.15
2019-02-05T04:14:15.818Z,2.11
2019-02-05T04:16:54.824Z,2.15
2019-02-05T04:19:33.350Z,2.18
2019-02-05T04:22:12.092Z,2.14
2019-02-05T04:24:50.755Z,2.11
2019-02-05T04:27:44.962Z,2.26
2019-02-05T04:30:29.820Z,2.19
2019-02-05T04:33:17.406Z,2.17
2019-02-05T04:35:59.379Z,2.21
2019-02-05T04:38:41.157Z,2.19
2019-02-05T04:41:38.614Z,2.19
2019-02-05T04:44:35.810Z,2.26
2019-02-05T04:47:09.196Z,2.15
2019-02-05T04:49:50.829Z,2.10
2019-02-05T04:52:29.413Z,2.16
2019-02-05T04:55:26.778Z,2.18
2019-02-05T04:58:08.683Z,2.14
2019-02-05T05:00:44.663Z,2.19
2019-02-05T05:03:17.876Z,2.22
2019-02-05T05:05:56.866Z,2.24
2019-02-05T05:08:44.710Z,2.23
2019-02-05T05:11:14.825Z,2.20
2019-02-05T05:13:44.597Z,2.20
2019-02-05T05:16:14.351Z,2.25
2019-02-05T05:18:44.121Z,2.26
2019-02-05T05:21:13.857Z,2.29
2019-02-05T05:23:45.168Z,2.25
2019-02-05T05:26:15.071Z,2.27
2019-02-05T05:28:44.837Z,2.30
2019-02-05T05:31:14.573Z,2.27
2019-02-05T05:33:44.365Z,2.24
2019-02-05T05:36:14.113Z,2.26
2019-02-05T05:38:43.874Z,2.31
2019-02-05T05:41:13.697Z,2.25
2019-02-05T05:43:43.473Z,2.30
2019-02-05T05:46:13.215Z,2.32
2019-02-05T05:48:42.967Z,2.35
2019-02-05T05:51:13.794Z,2.26
2019-02-05T05:53:43.630Z,2.28
2019-02-05T05:56:13.380Z,2.28
2019-02-05T05:58:43.142Z,2.27
2019-02-05T06:01:12.916Z,2.32
2019-02-05T06:03:43.798Z,2.33
2019-02-05T06:06:13.570Z,2.33
2019-02-05T06:08:43.312Z,2.28
2019-02-05T06:11:13.151Z,2.30
2019-02-05T06:13:43.072Z,2.31
2019-02-05T06:16:12.922Z,2.25
2019-02-05T06:18:42.674Z,2.26
2019-02-05T06:21:13.738Z,2.24
2019-02-05T06:23:43.669Z,2.34
2019-02-05T06:26:13.517Z,2.27
2019-02-05T06:28:43.441Z,2.30
2019-02-05T06:31:13.253Z,2.33
2019-02-05T06:33:43.164Z,2.29
2019-02-05T06:36:13.089Z,2.30
2019-02-05T06:38:44.758Z,2.33
2019-02-05T06:41:14.725Z,2.30
2019-02-05T06:43:44.662Z,2.28
2019-02-05T06:46:14.432Z,2.27
2019-02-05T06:48:44.181Z,2.22
2019-02-05T06:51:13.990Z,2.22
2019-02-05T06:53:43.782Z,2.25
2019-02-05T06:56:13.523Z,2.18
2019-02-05T06:58:46.623Z,2.21
2019-02-05T07:01:14.909Z,2.33
2019-02-05T07:03:44.677Z,2.40
2019-02-05T07:06:14.452Z,2.21
2019-02-05T07:08:44.201Z,2.22
2019-02-05T07:11:13.966Z,2.31
2019-02-05T07:13:43.970Z,2.28
2019-02-05T07:16:13.739Z,2.30
2019-02-05T07:18:43.474Z,2.32
2019-02-05T07:21:13.237Z,2.29
2019-02-05T07:23:43.004Z,2.24
2019-02-05T07:26:12.759Z,2.31
2019-02-05T07:28:42.713Z,2.36
2019-02-05T07:31:12.493Z,2.48
2019-02-05T07:33:42.247Z,2.49
2019-02-05T07:36:12.014Z,2.39
2019-02-05T07:38:41.761Z,2.43
2019-02-05T07:41:11.536Z,2.44
2019-02-05T07:43:41.292Z,2.40
2019-02-05T07:46:11.255Z,2.39
2019-02-05T07:48:41.004Z,2.47
2019-02-05T07:51:10.774Z,2.48
2019-02-05T07:53:40.534Z,2.51
2019-02-05T07:56:12.894Z,2.47
2019-02-05T07:58:41.779Z,2.50
2019-02-05T08:04:08.319Z,2.55
2019-02-05T08:06:38.093Z,2.57
2019-02-05T08:09:08.574Z,2.60
2019-02-05T08:11:41.241Z,2.59
2019-02-05T08:14:10.054Z,2.62
2019-02-05T08:16:39.804Z,2.55
2019-02-05T08:19:09.539Z,2.60
2019-02-05T08:21:39.318Z,2.60
2019-02-05T08:24:09.095Z,2.66
2019-02-05T08:26:38.845Z,2.71
2019-02-05T08:29:08.868Z,2.73
2019-02-05T08:31:38.634Z,2.79
2019-02-05T08:34:08.388Z,2.80
2019-02-05T08:36:38.201Z,2.70
2019-02-05T08:39:08.761Z,2.69
2019-02-05T08:41:38.601Z,2.66
2019-02-05T08:44:08.350Z,2.65
2019-02-05T08:46:38.101Z,2.75
2019-02-05T08:49:07.926Z,2.72
2019-02-05T08:51:37.676Z,2.80
2019-02-05T08:54:08.386Z,2.72
2019-02-05T08:56:38.156Z,2.74
2019-02-05T08:59:07.903Z,2.78
2019-02-05T09:01:37.873Z,2.70
2019-02-05T09:04:07.597Z,2.74
2019-02-05T09:06:37.373Z,2.73
2019-02-05T09:09:07.752Z,2.74
2019-02-05T09:11:37.580Z,2.80
2019-02-05T09:14:11.052Z,2.79
2019-02-05T09:16:38.814Z,2.76
2019-02-05T09:19:08.560Z,2.66
2019-02-05T09:21:38.325Z,2.68
2019-02-05T09:24:08.141Z,2.62
2019-02-05T09:26:37.908Z,2.57
2019-02-05T09:29:07.663Z,2.66
2019-02-05T09:31:37.441Z,2.61
2019-02-05T09:34:07.190Z,2.64
2019-02-05T09:36:37.117Z,2.73
2019-02-05T09:39:07.193Z,2.82
2019-02-05T09:41:37.017Z,2.75
2019-02-05T09:44:06.805Z,2.86
2019-02-05T09:46:36.599Z,2.89
2019-02-05T09:49:06.611Z,2.93
2019-02-05T09:51:36.376Z,2.96
2019-02-05T09:54:06.121Z,2.99
2019-02-05T09:56:35.894Z,2.90
2019-02-05T09:59:05.629Z,3.03
2019-02-05T10:01:35.387Z,2.99
2019-02-05T10:04:05.484Z,3.03
2019-02-05T10:06:35.260Z,3.03
2019-02-05T10:09:07.449Z,3.19
2019-02-05T10:11:37.206Z,3.09
2019-02-05T10:14:06.947Z,3.01
2019-02-05T10:16:36.722Z,2.94
2019-02-05T10:19:06.489Z,3.01
2019-02-05T10:21:36.283Z,3.05
2019-02-05T10:24:06.096Z,3.11
2019-02-05T10:26:35.858Z,3.02
2019-02-05T10:29:05.606Z,3.17
2019-02-05T10:31:35.372Z,3.21
2019-02-05T10:34:05.167Z,3.17
2019-02-05T10:36:34.921Z,3.04
2019-02-05T10:39:07.559Z,3.08
2019-02-05T10:41:37.324Z,3.11
2019-02-05T10:44:07.079Z,3.16
2019-02-05T10:46:36.854Z,3.24
2019-02-05T10:49:06.700Z,3.15
2019-02-05T10:51:36.651Z,3.19
2019-02-05T10:54:06.550Z,3.18
2019-02-05T10:56:36.401Z,3.20
2019-02-05T10:59:06.217Z,3.17
2019-02-05T11:01:36.008Z,3.25
2019-02-05T11:04:05.759Z,3.09
2019-02-05T11:06:35.913Z,3.18
2019-02-05T11:09:07.304Z,3.10
2019-02-05T11:11:37.083Z,3.14
2019-02-05T11:14:06.840Z,3.20
2019-02-05T11:16:36.602Z,3.17
2019-02-05T11:19:06.348Z,3.31
2019-02-05T11:21:36.452Z,3.33
2019-02-05T11:24:06.251Z,3.23
2019-02-05T11:26:36.780Z,3.17
2019-02-05T11:29:06.731Z,3.13
2019-02-05T11:31:36.598Z,3.15
2019-02-05T11:34:06.369Z,3.20
2019-02-05T11:36:36.180Z,3.20
2019-02-05T11:39:09.207Z,3.19
2019-02-05T11:41:38.946Z,3.14
2019-02-05T11:44:08.709Z,3.13
2019-02-05T11:46:38.442Z,3.18
2019-02-05T11:49:08.212Z,3.07
2019-02-05T11:51:37.976Z,3.12
2019-02-05T11:54:07.732Z,3.17
2019-02-05T11:56:37.490Z,3.17
2019-02-05T11:59:07.248Z,3.18
2019-02-05T12:01:39.023Z,3.22
2019-02-05T12:04:10.062Z,3.22
2019-02-05T12:06:39.890Z,3.19
2019-02-05T12:09:18.961Z,3.26
2019-02-05T12:11:48.709Z,3.35
2019-02-05T12:14:18.714Z,3.31
2019-02-05T12:16:48.469Z,3.30
2019-02-05T12:19:18.272Z,3.25
2019-02-05T12:21:48.023Z,3.24
2019-02-05T12:24:17.809Z,3.28
2019-02-05T12:26:47.587Z,3.14
2019-02-05T12:29:17.337Z,3.26
2019-02-05T12:31:47.090Z,3.37
2019-02-05T12:34:16.906Z,3.40
2019-02-05T12:36:46.664Z,3.26
2019-02-05T12:39:17.761Z,3.13
2019-02-05T12:41:47.587Z,3.22
2019-02-05T12:44:17.359Z,3.17
2019-02-05T12:46:47.088Z,3.17
2019-02-05T12:49:16.852Z,3.15
2019-02-05T12:51:46.592Z,3.23
2019-02-05T12:54:16.754Z,3.32
2019-02-05T12:56:46.506Z,3.27
2019-02-05T12:59:16.285Z,3.28
2019-02-05T13:01:46.006Z,3.36
2019-02-05T13:04:15.839Z,3.41
2019-02-05T13:06:45.577Z,3.27
2019-02-05T13:09:15.348Z,3.16
2019-02-05T13:11:45.201Z,3.21
2019-02-05T13:14:15.034Z,3.20
2019-02-05T13:16:44.791Z,3.29
2019-02-05T13:19:14.580Z,3.28
2019-02-05T13:21:44.319Z,3.36
2019-02-05T13:24:16.565Z,3.35
2019-02-05T13:26:45.549Z,3.21
2019-02-05T13:29:15.374Z,3.22
2019-02-05T13:31:45.138Z,3.24
2019-02-05T13:34:14.994Z,3.30
2019-02-05T13:36:45.114Z,3.26
2019-02-05T13:39:14.917Z,3.25
2019-02-05T13:41:44.671Z,3.12
2019-02-05T13:44:14.447Z,3.10
2019-02-05T13:46:44.185Z,3.12
2019-02-05T13:49:13.959Z,3.08
2019-02-05T13:51:43.697Z,3.17
2019-02-05T13:54:13.457Z,3.26
2019-02-05T13:56:43.182Z,3.24
2019-02-05T13:59:13.022Z,3.24
2019-02-05T14:01:44.682Z,3.28
2019-02-05T14:04:14.238Z,3.35
2019-02-05T14:06:43.973Z,3.38
2019-02-05T14:09:13.892Z,3.43
2019-02-05T14:11:43.640Z,3.55
2019-02-05T14:14:13.493Z,3.47
2019-02-05T14:16:43.249Z,3.56
2019-02-05T14:19:13.232Z,3.52
2019-02-05T14:21:42.958Z,3.58
2019-02-05T14:24:12.850Z,3.57
2019-02-05T14:26:42.612Z,3.43
2019-02-05T14:29:12.419Z,3.41
2019-02-05T14:31:42.181Z,3.38
2019-02-05T14:34:12.350Z,3.48
2019-02-05T14:36:42.099Z,3.46
2019-02-05T14:39:11.895Z,3.43
2019-02-05T14:41:41.747Z,3.52
2019-02-05T14:44:11.490Z,3.38
2019-02-05T14:46:41.227Z,3.45
2019-02-05T14:49:11.270Z,3.59
2019-02-05T14:51:41.018Z,3.57
2019-02-05T14:54:10.797Z,3.51
2019-02-05T14:56:40.556Z,3.54
2019-02-05T14:59:10.398Z,3.60
2019-02-05T15:01:43.197Z,3.67
2019-02-05T15:04:12.614Z,3.65
2019-02-05T15:06:42.402Z,3.67
2019-02-05T15:09:12.126Z,3.70
2019-02-05T15:11:41.882Z,3.62
2019-02-05T15:14:11.658Z,3.59
2019-02-05T15:16:42.660Z,3.64
2019-02-05T15:19:12.700Z,3.63
2019-02-05T15:21:42.429Z,3.61
2019-02-05T15:24:12.199Z,3.54
2019-02-05T15:26:41.949Z,3.69
2019-02-05T15:29:12.834Z,3.65
2019-02-05T15:31:53.920Z,3.69
2019-02-05T15:34:15.812Z,3.70
2019-02-05T15:36:46.326Z,3.70
2019-02-05T15:39:16.137Z,3.71
2019-02-05T15:41:45.919Z,3.68
2019-02-05T15:44:15.934Z,3.87
2019-02-05T15:46:45.719Z,3.94
2019-02-05T15:49:15.534Z,3.95
2019-02-05T15:51:46.269Z,4.00
2019-02-05T15:54:16.032Z,4.03
2019-02-05T15:56:45.794Z,4.02
2019-02-05T15:59:15.545Z,3.99
2019-02-05T16:01:45.342Z,3.93
2019-02-05T16:04:15.094Z,3.97
2019-02-05T16:06:44.888Z,3.86
2019-02-05T16:09:14.637Z,3.98
2019-02-05T16:11:44.406Z,4.00
2019-02-05T16:14:14.165Z,4.00
2019-02-05T16:16:43.976Z,3.94
2019-02-05T16:19:13.712Z,3.90
2019-02-05T16:21:44.453Z,3.87
2019-02-05T16:24:14.195Z,3.83
2019-02-05T16:26:44.343Z,3.83
2019-02-05T16:29:14.100Z,3.84
2019-02-05T16:31:43.867Z,3.70
2019-02-05T16:34:13.621Z,3.80
2019-02-05T16:36:43.415Z,3.73
2019-02-05T16:39:13.196Z,3.85
2019-02-05T16:41:43.255Z,3.81
2019-02-05T16:44:13.014Z,3.85
2019-02-05T16:46:43.865Z,3.89
2019-02-05T16:49:13.630Z,3.93
2019-02-05T16:51:43.397Z,3.89
2019-02-05T16:54:13.167Z,3.97
2019-02-05T16:56:43.004Z,3.92
2019-02-05T16:59:12.766Z,4.00
2019-02-05T17:01:42.521Z,4.01
2019-02-05T17:04:12.264Z,4.07
2019-02-05T17:06:42.042Z,4.08
2019-02-05T17:09:15.176Z,4.08
2019-02-05T17:11:44.958Z,4.04
2019-02-05T17:14:14.726Z,4.08
2019-02-05T17:16:44.529Z,4.00
2019-02-05T17:19:14.313Z,4.05
2019-02-05T17:21:44.067Z,4.14
2019-02-05T17:24:13.999Z,4.11
2019-02-05T17:26:43.808Z,4.17
2019-02-05T17:29:13.592Z,4.18
2019-02-05T17:31:43.388Z,4.20
2019-02-05T17:34:13.194Z,4.17
2019-02-05T17:36:42.968Z,4.15
2019-02-05T17:39:12.916Z,4.11
2019-02-05T17:41:42.742Z,4.12
2019-02-05T17:44:12.519Z,4.12
2019-02-05T17:46:42.360Z,4.15
2019-02-05T17:49:12.332Z,4.06
2019-02-05T17:51:42.050Z,3.94
2019-02-05T17:54:12.115Z,3.95
2019-02-05T17:56:41.902Z,3.95
2019-02-05T17:59:11.662Z,3.87
2019-02-05T18:01:41.427Z,3.94
2019-02-05T18:04:11.253Z,3.93
2019-02-05T18:06:41.045Z,4.01
2019-02-05T18:09:11.073Z,4.06
2019-02-05T18:11:40.851Z,4.03
2019-02-05T18:14:11.682Z,3.99
2019-02-05T18:16:41.549Z,4.00
2019-02-05T18:19:11.343Z,3.98
2019-02-05T18:21:41.116Z,3.99
2019-02-05T18:24:10.894Z,3.84
2019-02-05T18:26:40.771Z,3.68
2019-02-05T18:29:10.547Z,3.64
2019-02-05T18:31:40.408Z,3.71
2019-02-05T18:34:10.255Z,3.74
2019-02-05T18:36:40.418Z,3.82
2019-02-05T18:39:10.193Z,3.76
2019-02-05T18:41:40.943Z,3.88
2019-02-05T18:44:10.696Z,3.97
2019-02-05T18:46:40.481Z,4.03
2019-02-05T18:49:10.270Z,3.97
2019-02-05T18:51:41.177Z,3.97
2019-02-05T18:54:10.963Z,3.94
2019-02-05T18:56:40.749Z,3.97
2019-02-05T18:59:10.735Z,3.99
2019-02-05T19:01:40.465Z,3.93
2019-02-05T19:04:11.335Z,3.97
2019-02-05T19:06:41.108Z,3.85
2019-02-05T19:09:12.697Z,3.70
2019-02-05T19:11:42.487Z,3.69
2019-02-05T19:14:12.347Z,3.80
2019-02-05T19:16:42.089Z,3.77
2019-02-05T19:19:14.975Z,3.71
2019-02-05T19:21:43.631Z,3.68
2019-02-05T19:24:15.063Z,3.68
2019-02-05T19:26:45.763Z,3.72
2019-02-05T19:29:18.811Z,3.68
2019-02-05T19:31:47.012Z,3.71
2019-02-05T19:34:16.823Z,3.77
2019-02-05T19:36:46.577Z,3.74
2019-02-05T19:39:16.401Z,3.80
2019-02-05T19:41:46.276Z,3.77
2019-02-05T19:44:16.190Z,3.76
2019-02-05T19:46:50.517Z,3.76
2019-02-05T19:49:25.273Z,3.76
2019-02-05T19:51:55.010Z,3.78
2019-02-05T19:54:25.429Z,3.76
2019-02-05T19:56:55.150Z,3.72
2019-02-05T19:59:25.482Z,3.73
2019-02-05T20:01:55.209Z,3.72
2019-02-05T20:04:25.202Z,3.80
2019-02-05T20:06:54.965Z,3.85
2019-02-05T20:09:24.804Z,3.86
2019-02-05T20:11:54.547Z,3.76
2019-02-05T20:14:24.317Z,3.82
2019-02-05T20:16:54.089Z,3.84
2019-02-05T20:19:24.971Z,3.86
2019-02-05T20:21:54.877Z,3.80
2019-02-05T20:24:24.665Z,3.85
2019-02-05T20:26:54.407Z,3.78
2019-02-05T20:29:24.192Z,3.74
2019-02-05T20:31:53.936Z,3.66
2019-02-05T20:34:24.096Z,3.66
2019-02-05T20:36:54.576Z,3.66
2019-02-05T20:39:24.375Z,3.64
2019-02-05T20:41:54.483Z,3.62
2019-02-05T20:44:24.339Z,3.55
2019-02-05T20:46:54.186Z,3.55
2019-02-05T20:49:24.330Z,3.56
2019-02-05T20:51:54.097Z,3.50
2019-02-05T20:54:23.901Z,3.56
2019-02-05T20:56:53.664Z,3.49
2019-02-05T20:59:23.479Z,3.50
2019-02-05T21:01:56.124Z,3.46
2019-02-05T21:04:24.912Z,3.49
2019-02-05T21:06:54.780Z,3.50
2019-02-05T21:09:24.577Z,3.52
2019-02-05T21:11:54.361Z,3.52
2019-02-05T21:14:24.112Z,3.53
2019-02-05T21:16:54.000Z,3.50
2019-02-05T21:19:23.787Z,3.45
2019-02-05T21:21:53.879Z,3.39
2019-02-05T21:24:23.730Z,3.47
2019-02-05T21:26:53.479Z,3.38
2019-02-05T21:29:24.408Z,3.43
2019-02-05T21:31:54.134Z,3.47
2019-02-05T21:34:23.903Z,3.55
2019-02-05T21:36:53.889Z,3.56
2019-02-05T21:39:23.704Z,3.55
2019-02-05T21:41:53.472Z,3.54
2019-02-05T21:44:23.251Z,3.55
2019-02-05T21:46:53.022Z,3.58
2019-02-05T21:49:22.933Z,3.59
2019-02-05T21:51:52.855Z,3.57
2019-02-05T21:54:22.622Z,3.60
2019-02-05T21:56:52.376Z,3.69
2019-02-05T21:59:22.159Z,3.64
2019-02-05T22:01:51.923Z,3.64
2019-02-05T22:04:27.295Z,3.67
2019-02-05T22:06:53.253Z,3.62
2019-02-05T22:09:23.028Z,3.46
2019-02-05T22:11:52.898Z,3.45
2019-02-05T22:14:22.665Z,3.52
2019-02-05T22:16:52.479Z,3.52
2019-02-05T22:19:22.536Z,3.38
2019-02-05T22:21:52.303Z,3.32
2019-02-05T22:24:22.124Z,3.24
2019-02-05T22:26:51.889Z,3.19
2019-02-05T22:29:21.631Z,3.08
2019-02-05T22:31:51.401Z,3.02
2019-02-05T22:34:21.548Z,2.94
2019-02-05T22:36:51.339Z,2.71
2019-02-05T22:39:21.120Z,2.65
2019-02-05T22:41:50.860Z,2.67
2019-02-05T22:44:20.616Z,2.56
2019-02-05T22:46:50.755Z,2.44
2019-02-05T22:49:20.496Z,2.48
2019-02-05T22:51:50.551Z,2.56
2019-02-05T22:54:20.311Z,2.55
2019-02-05T22:56:50.847Z,2.49
2019-02-05T22:59:20.869Z,2.40
2019-02-05T23:01:50.712Z,2.28
2019-02-05T23:04:23.844Z,2.26
2019-02-05T23:06:59.875Z,2.22
2019-02-05T23:09:39.513Z,2.27
2019-02-05T23:12:27.720Z,2.32
2019-02-05T23:15:04.624Z,2.21
2019-02-05T23:17:34.399Z,2.20
2019-02-05T23:20:07.407Z,2.16
2019-02-05T23:22:37.250Z,2.03
2019-02-05T23:25:07.663Z,1.96
2019-02-05T23:27:37.364Z,1.96
2019-02-05T23:30:13.272Z,1.92
2019-02-05T23:32:43.051Z,1.90
2019-02-05T23:35:12.798Z,1.91
2019-02-05T23:37:42.556Z,1.88
2019-02-05T23:40:12.734Z,1.60
2019-02-05T23:42:42.489Z,1.61
2019-02-05T23:45:13.994Z,1.58
2019-02-05T23:47:43.802Z,1.65
2019-02-05T23:50:14.812Z,1.68
2019-02-05T23:52:44.861Z,1.65
2019-02-05T23:55:14.795Z,1.57
2019-02-05T23:57:44.611Z,1.57
